CYPL

Details ICAO CYPL (YPL)
Name PICKLE LAKE
Region Canada
Timezone America/Toronto (UTC-4.0)
Plans Departing 0
Arriving 3
Stats Elevation 1,267 ft / 386 m (AMSL)
Location 51.446485° -90.214131°
Runways 1
Magnetic Variation 3.681° W
Sunrise 2018-05-20 10:03:35 UTC / 2018-05-20 06:03:35 Local
Sunset 2018-05-21 01:54:03 UTC / 2018-05-20 21:54:03 Local
Advertisement - Login to hide

Runways

ID Width Length Bearing (true) Bearing (mag) Surface Threshold Offset Overrun Length
09 100 ft / 30 m 4,907 ft / 1,496 m 90.24° 93.92° Asphalt 0 ft / 0 m 0 ft / 0 m
27 100 ft / 30 m 4,907 ft / 1,496 m 270.26° 273.94° Asphalt 0 ft / 0 m 0 ft / 0 m

Map

Weather


0- 5 10 15 20 25 30 35+ Temperature / ° C

Clouds and Precipitation
Forecast for 2018-05-20 18:00 UTC. Updated 2 hours ago

Ground ~20,000 ft ~40,000 ft Winds

METAR

CYPL 201900Z 28010G15KT 15SM FEW060 SCT110 BKN230 19/01 A3005 RMK CU1AC3CI2 SLP187 DENSITY ALT 1900FT

TAF

TAF CYPL 201238Z 2013/2101 26010KT P6SM BKN090 OVC240 TEMPO 2013/2018 P6SM -SHRA OVC070 RMK NXT FCST BY 202000Z
Warning: Do not use this data for real-world aviation or navigation. No guarantee of current accuracy is given.